Time;durP1;ratioP1;P1;durP2;ratioP2;P2;SDS_P1;SDS_P2;PMS_P1;PMS_P2;Temp;Humidity;BMP_temperature;BMP_pressure;BME280_temperature;BME280_humidity;BME280_pressure;Samples;Min_cycle;Max_cycle;Signal;HPM_P1;HPM_P2
2022/03/06 00:01:23;;;;;;;;;;;2.40;75.40;;;;;;5029317;28;20238;-47
2022/03/06 00:03:49;;;;;;;7.90;3.90;;;2.40;75.50;;;;;;5028690;28;19913;-43
2022/03/06 00:06:16;;;;;;;10.02;3.42;;;2.50;75.40;;;;;;5029283;28;20087;-43
2022/03/06 00:08:43;;;;;;;5.80;3.28;;;2.50;75.70;;;;;;5012395;28;20112;-44
2022/03/06 00:11:09;;;;;;;6.80;3.85;;;2.50;75.90;;;;;;5008085;28;20471;-49
2022/03/06 00:13:37;;;;;;;9.00;3.55;;;2.50;75.80;;;;;;5017309;28;20161;-43
2022/03/06 00:16:05;;;;;;;9.15;3.55;;;2.50;75.90;;;;;;5027615;28;20438;-44
2022/03/06 00:18:35;;;;;;;6.10;3.38;;;2.50;75.80;;;;;;5031273;28;20034;-42
2022/03/06 00:21:09;;;;;;;6.43;3.25;;;2.50;75.70;;;;;;5048571;28;20033;-44
2022/03/06 00:23:36;;;;;;;6.35;3.25;;;2.50;75.40;;;;;;5048932;28;20473;-43
2022/03/06 00:26:03;;;;;;;6.57;3.25;;;2.50;75.50;;;;;;5031688;28;20029;-43
2022/03/06 00:28:30;;;;;;;6.88;3.72;;;2.50;75.60;;;;;;5049036;28;20025;-43
2022/03/06 00:30:59;;;;;;;10.60;3.97;;;2.40;75.80;;;;;;5014532;28;20393;-43
2022/03/06 00:33:25;;;;;;;7.03;2.88;;;2.40;75.70;;;;;;5035900;28;20047;-43
2022/03/06 00:36:01;;;;;;;8.15;3.22;;;2.50;76.00;;;;;;5049214;28;20025;-42
2022/03/06 00:38:28;;;;;;;6.80;3.25;;;2.50;75.90;;;;;;5031828;28;20452;-43
2022/03/06 00:40:57;;;;;;;10.80;3.83;;;2.50;76.00;;;;;;5048952;28;20037;-42
2022/03/06 00:43:25;;;;;;;7.78;2.88;;;2.50;75.90;;;;;;5049083;28;20025;-44
2022/03/06 00:45:50;;;;;;;8.23;3.35;;;2.50;75.60;;;;;;5049143;28;20043;-43
2022/03/06 00:48:18;;;;;;;6.07;2.97;;;2.50;75.20;;;;;;5049180;28;20021;-42
2022/03/06 00:50:46;;;;;;;5.45;3.10;;;2.50;75.30;;;;;;5049078;28;20099;-43
2022/03/06 00:53:12;;;;;;;5.97;3.28;;;2.40;74.90;;;;;;5040974;28;20025;-45
2022/03/06 00:55:41;;;;;;;4.43;2.83;;;2.50;75.00;;;;;;5029281;28;20484;-45
2022/03/06 00:58:09;;;;;;;7.88;3.22;;;2.50;75.10;;;;;;5043457;28;20373;-42
2022/03/06 01:00:49;;;;;;;5.03;2.75;;;2.50;75.50;;;;;;5049270;28;20044;-44
2022/03/06 01:03:21;;;;;;;6.30;3.05;;;2.50;75.30;;;;;;5028292;28;20385;-43
2022/03/06 01:05:49;;;;;;;6.50;3.22;;;2.50;75.20;;;;;;5023332;28;20130;-44
2022/03/06 01:08:15;;;;;;;7.38;3.72;;;2.40;75.40;;;;;;5014552;28;20104;-46
2022/03/06 01:10:47;;;;;;;4.50;2.80;;;2.40;75.50;;;;;;5048508;28;20054;-42
2022/03/06 01:13:19;;;;;;;8.65;4.50;;;2.40;75.60;;;;;;5048340;28;20087;-43
2022/03/06 01:15:52;;;;;;;6.13;3.15;;;2.40;75.70;;;;;;5030674;28;20231;-44
2022/03/06 01:18:21;;;;;;;7.78;3.63;;;2.40;75.70;;;;;;5030747;28;20741;-44
2022/03/06 01:20:47;;;;;;;7.40;3.10;;;2.40;75.80;;;;;;5028544;28;20033;-42
2022/03/06 01:23:15;;;;;;;5.53;2.85;;;2.40;75.50;;;;;;5010957;28;20040;-44
2022/03/06 01:25:42;;;;;;;6.10;3.10;;;2.40;75.20;;;;;;5012431;28;20390;-45
2022/03/06 01:28:09;;;;;;;5.97;3.38;;;2.40;75.00;;;;;;5014741;28;20033;-42
2022/03/06 01:30:36;;;;;;;5.85;3.13;;;2.40;74.80;;;;;;5032344;28;20018;-43
2022/03/06 01:33:02;;;;;;;6.63;3.45;;;2.40;74.90;;;;;;5032332;28;20051;-43
2022/03/06 01:35:30;;;;;;;7.13;2.95;;;2.40;75.00;;;;;;5014904;28;20036;-42
2022/03/06 01:37:59;;;;;;;6.07;2.78;;;2.40;75.20;;;;;;5032088;28;20026;-43
2022/03/06 01:40:25;;;;;;;8.05;2.55;;;2.40;75.40;;;;;;5013937;28;20041;-45
2022/03/06 01:42:51;;;;;;;6.82;2.28;;;2.40;74.70;;;;;;5032289;28;20032;-43
2022/03/06 01:45:23;;;;;;;6.57;2.97;;;2.40;74.40;;;;;;5032001;28;20022;-43
2022/03/06 01:47:52;;;;;;;5.40;2.72;;;2.40;74.40;;;;;;4998687;28;20044;-43
2022/03/06 01:50:38;;;;;;;7.35;2.95;;;2.40;74.50;;;;;;5014764;28;20038;-43
2022/03/06 01:53:08;;;;;;;6.03;2.53;;;2.40;74.10;;;;;;5012603;28;20355;-42
2022/03/06 01:55:45;;;;;;;6.35;2.67;;;2.40;73.50;;;;;;4998537;28;20041;-43
2022/03/06 01:58:13;;;;;;;6.97;2.08;;;2.40;73.30;;;;;;5014219;28;20032;-42
2022/03/06 02:00:44;;;;;;;5.63;2.45;;;2.50;73.50;;;;;;5014388;28;20040;-46
2022/03/06 02:03:11;;;;;;;6.03;2.40;;;2.40;73.20;;;;;;4999153;28;20112;-44
2022/03/06 02:05:38;;;;;;;6.88;2.35;;;2.40;73.00;;;;;;5031577;28;20081;-44
2022/03/06 02:08:06;;;;;;;4.65;2.15;;;2.40;73.10;;;;;;5029169;28;20049;-45
2022/03/06 02:10:35;;;;;;;8.38;2.40;;;2.40;72.30;;;;;;5031685;28;20032;-42
2022/03/06 02:13:07;;;;;;;7.47;3.38;;;2.40;72.60;;;;;;5014499;28;20091;-42
2022/03/06 02:15:34;;;;;;;3.53;1.75;;;2.50;72.90;;;;;;5031953;28;20068;-47
2022/03/06 02:18:02;;;;;;;6.05;2.58;;;2.40;73.00;;;;;;5014309;28;20026;-43
2022/03/06 02:20:29;;;;;;;4.95;2.30;;;2.40;72.90;;;;;;5048585;28;20332;-44
2022/03/06 02:22:58;;;;;;;6.47;2.60;;;2.40;72.90;;;;;;5051092;28;20033;-45
2022/03/06 02:25:43;;;;;;;9.07;3.00;;;2.40;72.90;;;;;;5033761;28;20036;-44
2022/03/06 02:28:10;;;;;;;3.90;2.10;;;2.40;72.60;;;;;;5051081;28;20029;-46
2022/03/06 02:30:41;;;;;;;4.28;2.65;;;2.40;73.10;;;;;;5033121;28;20039;-42
2022/03/06 02:33:10;;;;;;;8.60;2.38;;;2.40;73.40;;;;;;5034358;28;20044;-43
2022/03/06 02:35:38;;;;;;;6.93;2.42;;;2.40;72.80;;;;;;5034017;28;20362;-44
2022/03/06 02:38:06;;;;;;;7.60;2.17;;;2.40;72.30;;;;;;5050239;28;20028;-44
2022/03/06 02:40:38;;;;;;;4.80;2.03;;;2.40;72.40;;;;;;5033326;28;20025;-42
2022/03/06 02:43:06;;;;;;;3.80;1.85;;;2.40;72.40;;;;;;5051447;28;20644;-42
2022/03/06 02:45:35;;;;;;;5.20;1.85;;;2.40;71.90;;;;;;5050532;28;20107;-43
2022/03/06 02:48:02;;;;;;;7.25;1.73;;;2.30;71.60;;;;;;5012919;28;20438;-42
2022/03/06 02:50:34;;;;;;;4.82;1.50;;;2.30;70.60;;;;;;5038109;28;20074;-46
2022/03/06 02:53:04;;;;;;;5.28;1.55;;;2.30;70.40;;;;;;5027219;28;20377;-47
2022/03/06 02:55:34;;;;;;;5.88;2.25;;;2.20;70.70;;;;;;5029364;28;20037;-43
2022/03/06 02:58:04;;;;;;;3.75;1.90;;;2.20;71.10;;;;;;5051051;28;20083;-44
2022/03/06 03:00:30;;;;;;;4.32;1.73;;;2.00;71.30;;;;;;5050259;28;20037;-42
2022/03/06 03:02:57;;;;;;;4.13;1.85;;;2.00;71.10;;;;;;4997445;28;20427;-43
2022/03/06 03:05:25;;;;;;;3.78;1.70;;;1.90;70.40;;;;;;5037807;28;20056;-46
2022/03/06 03:07:53;;;;;;;5.90;1.80;;;1.90;70.70;;;;;;5027465;28;20087;-45
2022/03/06 03:10:23;;;;;;;3.10;1.55;;;1.90;71.00;;;;;;5022005;28;20094;-43
2022/03/06 03:12:50;;;;;;;;;;;1.90;71.50;;;;;;5043970;28;20039;-47
2022/03/06 03:15:17;;;;;;;4.88;1.60;;;1.80;71.60;;;;;;5030226;28;19919;-44
2022/03/06 03:17:44;;;;;;;4.97;1.80;;;1.80;71.80;;;;;;5032995;28;20503;-43
2022/03/06 03:20:16;;;;;;;2.47;1.23;;;1.70;71.80;;;;;;4981992;28;20057;-43
2022/03/06 03:22:45;;;;;;;4.35;1.98;;;1.70;71.90;;;;;;5030203;28;20044;-45
2022/03/06 03:25:12;;;;;;;4.45;2.42;;;1.70;72.20;;;;;;5030692;28;20331;-43
2022/03/06 03:27:41;;;;;;;4.55;2.00;;;1.70;71.50;;;;;;5029962;28;20363;-45
2022/03/06 03:30:10;;;;;;;4.25;2.08;;;1.60;70.30;;;;;;5030639;28;20043;-47
2022/03/06 03:32:38;;;;;;;6.07;2.05;;;1.50;70.10;;;;;;5011694;28;20029;-47
2022/03/06 03:35:04;;;;;;;3.85;1.98;;;1.50;69.70;;;;;;5027991;28;20206;-45
2022/03/06 03:37:34;;;;;;;3.33;1.70;;;1.40;69.50;;;;;;4993742;28;20040;-44
2022/03/06 03:40:01;;;;;;;3.55;1.98;;;1.40;69.60;;;;;;5024749;28;20516;-44
2022/03/06 03:42:26;;;;;;;3.47;1.50;;;1.40;69.80;;;;;;5004372;28;20033;-47
2022/03/06 03:44:52;;;;;;;3.60;1.63;;;1.40;69.60;;;;;;5030365;28;20033;-47
2022/03/06 03:47:19;;;;;;;3.40;1.77;;;1.30;70.30;;;;;;5029281;28;20025;-43
2022/03/06 03:49:47;;;;;;;3.85;1.83;;;1.30;71.10;;;;;;5030103;28;20040;-47
2022/03/06 03:52:14;;;;;;;2.90;1.55;;;1.30;71.80;;;;;;5024486;28;20080;-43
2022/03/06 03:54:41;;;;;;;5.93;1.73;;;1.30;71.20;;;;;;5023093;28;20033;-45
2022/03/06 03:57:07;;;;;;;3.90;1.50;;;1.30;71.30;;;;;;5016156;28;20379;-45
2022/03/06 03:59:35;;;;;;;3.55;1.73;;;1.30;70.90;;;;;;5030157;28;20025;-45
2022/03/06 04:02:02;;;;;;;3.45;1.50;;;1.40;70.80;;;;;;5028753;28;20061;-47
2022/03/06 04:04:29;;;;;;;2.72;1.42;;;1.40;71.10;;;;;;5030500;28;20025;-46
2022/03/06 04:06:57;;;;;;;3.72;1.52;;;1.40;71.20;;;;;;5030229;28;20449;-43
2022/03/06 04:09:23;;;;;;;3.97;1.40;;;1.40;70.90;;;;;;5030159;28;20029;-42
2022/03/06 04:11:51;;;;;;;3.63;1.58;;;1.40;70.60;;;;;;5012319;28;20037;-45
2022/03/06 04:14:19;;;;;;;2.67;1.55;;;1.40;70.90;;;;;;5030298;28;20029;-43
2022/03/06 04:16:46;;;;;;;3.40;1.40;;;1.40;71.10;;;;;;5012519;28;20037;-44
2022/03/06 04:19:13;;;;;;;3.25;1.58;;;1.40;71.20;;;;;;5037093;28;20062;-46
2022/03/06 04:21:41;;;;;;;2.97;1.27;;;1.40;71.30;;;;;;5031584;28;20044;-46
2022/03/06 04:24:12;;;;;;;4.63;1.48;;;1.40;71.20;;;;;;5049847;28;20049;-44
2022/03/06 04:26:38;;;;;;;4.07;1.58;;;1.40;71.20;;;;;;5031960;28;20075;-43
2022/03/06 04:29:05;;;;;;;5.28;1.70;;;1.40;71.20;;;;;;5016106;28;20040;-44
2022/03/06 04:31:32;;;;;;;6.03;1.88;;;1.40;70.90;;;;;;5031731;28;20094;-43
2022/03/06 04:33:59;;;;;;;3.28;2.22;;;1.40;71.10;;;;;;5038464;28;20028;-44
2022/03/06 04:36:25;;;;;;;3.53;1.60;;;1.40;71.20;;;;;;5032043;28;20061;-45
2022/03/06 04:38:53;;;;;;;3.90;1.40;;;1.40;70.70;;;;;;5032266;28;20140;-44
2022/03/06 04:41:21;;;;;;;3.63;1.40;;;1.40;70.60;;;;;;5013818;28;20480;-44
2022/03/06 04:43:46;;;;;;;4.85;1.60;;;1.40;70.40;;;;;;5032214;28;20033;-43
2022/03/06 04:46:13;;;;;;;3.40;1.50;;;1.40;71.00;;;;;;5049275;28;20028;-43
2022/03/06 04:48:45;;;;;;;3.60;1.40;;;1.40;71.80;;;;;;5031911;28;20024;-43
2022/03/06 04:51:14;;;;;;;3.53;1.88;;;1.40;71.30;;;;;;5015003;28;20064;-46
2022/03/06 04:53:41;;;;;;;2.58;1.60;;;1.40;68.90;;;;;;5021831;28;20117;-43
2022/03/06 04:56:07;;;;;;;8.27;1.52;;;1.40;67.20;;;;;;5011846;28;20044;-44
2022/03/06 04:58:35;;;;;;;3.03;1.50;;;1.50;67.30;;;;;;5046256;28;20029;-45
2022/03/06 05:01:05;;;;;;;2.25;1.42;;;1.40;67.30;;;;;;5050320;28;20025;-44
2022/03/06 05:03:31;;;;;;;5.32;1.67;;;1.40;66.90;;;;;;5036169;28;20037;-43
2022/03/06 05:05:59;;;;;;;3.28;1.80;;;1.40;67.20;;;;;;5035333;28;20032;-43
2022/03/06 05:08:28;;;;;;;5.05;1.75;;;1.40;67.50;;;;;;5052406;28;20445;-43
2022/03/06 05:10:57;;;;;;;4.03;1.80;;;1.40;67.50;;;;;;5052648;28;20801;-43
2022/03/06 05:13:27;;;;;;;4.35;1.75;;;1.50;68.00;;;;;;5053235;28;20064;-44
2022/03/06 05:15:56;;;;;;;3.45;1.58;;;1.50;66.80;;;;;;5052577;28;20119;-43
2022/03/06 05:18:24;;;;;;;3.10;1.33;;;1.40;66.60;;;;;;5030431;28;20043;-42
2022/03/06 05:20:51;;;;;;;4.35;1.85;;;1.40;66.60;;;;;;5035385;28;20163;-43
2022/03/06 05:23:19;;;;;;;4.35;1.60;;;1.50;66.60;;;;;;5052774;28;20098;-44
2022/03/06 05:25:47;;;;;;;4.60;1.98;;;1.40;67.60;;;;;;5052666;28;20025;-43
2022/03/06 05:28:14;;;;;;;4.85;1.73;;;1.40;67.70;;;;;;5052460;28;20029;-42
2022/03/06 05:30:40;;;;;;;4.35;1.50;;;1.40;68.10;;;;;;5018342;28;20033;-43
2022/03/06 05:33:07;;;;;;;2.53;1.20;;;1.40;68.30;;;;;;5034835;28;20040;-43
2022/03/06 05:35:34;;;;;;;3.85;1.35;;;1.30;68.70;;;;;;5052370;28;20077;-42
2022/03/06 05:38:04;;;;;;;4.80;1.75;;;1.30;68.20;;;;;;5051500;28;20044;-44
2022/03/06 05:40:32;;;;;;;7.95;2.35;;;1.30;68.10;;;;;;5052799;28;20029;-45
2022/03/06 05:42:58;;;;;;;4.82;1.90;;;1.30;68.20;;;;;;5035037;28;20500;-44
2022/03/06 05:45:28;;;;;;;5.15;1.92;;;1.40;68.10;;;;;;5035059;28;20100;-44
2022/03/06 05:47:54;;;;;;;5.88;1.70;;;1.40;67.90;;;;;;5052138;28;20035;-44
2022/03/06 05:50:26;;;;;;;4.07;1.80;;;1.50;67.50;;;;;;5052447;28;20061;-49
2022/03/06 05:53:01;;;;;;;7.47;2.13;;;1.60;67.40;;;;;;5032554;28;20037;-44
2022/03/06 05:55:26;;;;;;;4.43;1.77;;;1.60;67.20;;;;;;5032489;28;20025;-42
2022/03/06 05:57:56;;;;;;;4.38;1.90;;;1.70;67.50;;;;;;5051551;28;20020;-45
2022/03/06 06:00:23;;;;;;;4.97;1.92;;;1.80;67.60;;;;;;5052307;28;20048;-44
2022/03/06 06:02:50;;;;;;;3.33;1.63;;;1.80;66.00;;;;;;5034434;28;20036;-43
2022/03/06 06:05:17;;;;;;;3.58;1.70;;;1.70;66.40;;;;;;5052005;28;20439;-47
2022/03/06 06:07:47;;;;;;;4.05;1.75;;;1.70;66.70;;;;;;5051350;28;20028;-44
2022/03/06 06:10:18;;;;;;;3.15;1.80;;;1.80;66.40;;;;;;5051518;28;20533;-43
2022/03/06 06:12:44;;;;;;;4.78;1.95;;;1.70;66.30;;;;;;5048846;28;20357;-43
2022/03/06 06:15:11;;;;;;;4.32;1.60;;;1.80;64.80;;;;;;5017963;28;20032;-43
2022/03/06 06:17:37;;;;;;;2.85;2.00;;;1.80;64.50;;;;;;5033811;28;20037;-46
2022/03/06 06:20:08;;;;;;;4.07;1.77;;;1.80;64.90;;;;;;5048447;28;20057;-44
2022/03/06 06:22:35;;;;;;;4.50;2.42;;;1.80;64.40;;;;;;5040701;28;20040;-44
2022/03/06 06:25:06;;;;;;;4.95;1.50;;;1.80;64.80;;;;;;5025720;28;20476;-44
2022/03/06 06:27:33;;;;;;;2.22;1.27;;;1.90;64.80;;;;;;5045449;28;20453;-45
2022/03/06 06:30:00;;;;;;;3.85;1.92;;;1.90;64.80;;;;;;5024935;28;20032;-46
2022/03/06 06:32:29;;;;;;;5.13;2.08;;;1.90;65.60;;;;;;5048902;28;20033;-43
2022/03/06 06:34:55;;;;;;;10.57;2.10;;;1.90;65.50;;;;;;5051742;28;20122;-44
2022/03/06 06:37:23;;;;;;;3.92;2.03;;;1.90;65.70;;;;;;5051007;28;20432;-44
2022/03/06 06:39:49;;;;;;;5.82;2.20;;;1.90;65.70;;;;;;5028890;28;20029;-44
2022/03/06 06:42:17;;;;;;;3.38;1.52;;;1.90;65.40;;;;;;5039678;28;20033;-42
2022/03/06 06:44:45;;;;;;;4.55;1.42;;;1.80;66.00;;;;;;5042107;28;20062;-42
2022/03/06 06:47:15;;;;;;;3.65;1.48;;;1.80;65.70;;;;;;5044656;28;20114;-43
2022/03/06 06:49:41;;;;;;;;;;;1.80;66.30;;;;;;5042085;28;20038;-46
2022/03/06 06:52:07;;;;;;;4.57;1.60;;;1.80;65.30;;;;;;5026930;28;19962;-44
2022/03/06 06:54:34;;;;;;;3.13;1.45;;;1.80;66.70;;;;;;5044013;28;20033;-47
2022/03/06 06:57:01;;;;;;;4.18;1.38;;;1.70;67.50;;;;;;5027992;28;20098;-46
2022/03/06 06:59:29;;;;;;;3.55;1.85;;;1.70;67.20;;;;;;5028440;28;20029;-46
2022/03/06 07:01:58;;;;;;;2.95;1.50;;;1.80;67.00;;;;;;5041748;28;20025;-44
2022/03/06 07:04:23;;;;;;;4.82;1.30;;;1.80;66.80;;;;;;5041525;28;20021;-43
2022/03/06 07:06:51;;;;;;;5.05;1.52;;;1.80;66.50;;;;;;5049636;28;20032;-45
2022/03/06 07:09:19;;;;;;;3.90;1.77;;;1.80;66.70;;;;;;5030220;28;20031;-46
2022/03/06 07:11:45;;;;;;;3.03;1.70;;;1.90;66.70;;;;;;5050736;28;20051;-44
2022/03/06 07:14:12;;;;;;;4.50;1.70;;;1.90;66.90;;;;;;5030175;28;20063;-46
2022/03/06 07:16:37;;;;;;;4.35;1.65;;;1.90;67.10;;;;;;5050858;28;20025;-44
2022/03/06 07:19:04;;;;;;;4.45;1.67;;;1.80;67.50;;;;;;5049976;28;20045;-42
2022/03/06 07:21:33;;;;;;;5.43;2.08;;;1.90;68.10;;;;;;5050374;28;20060;-45
2022/03/06 07:24:02;;;;;;;3.22;1.60;;;1.90;67.60;;;;;;5049727;28;20028;-43
2022/03/06 07:26:29;;;;;;;3.83;1.58;;;1.90;68.00;;;;;;5050069;28;20039;-43
2022/03/06 07:28:58;;;;;;;5.07;1.58;;;1.90;68.00;;;;;;5049925;28;20021;-44
2022/03/06 07:31:25;;;;;;;4.30;1.40;;;2.00;67.90;;;;;;5032374;28;20036;-48
2022/03/06 07:33:52;;;;;;;3.13;1.48;;;2.10;66.90;;;;;;5049841;28;20518;-48
2022/03/06 07:36:21;;;;;;;2.63;1.23;;;2.20;67.00;;;;;;5033085;28;20048;-44
2022/03/06 07:38:47;;;;;;;3.63;1.50;;;2.30;66.30;;;;;;5049018;28;20021;-45
2022/03/06 07:41:14;;;;;;;3.58;1.45;;;2.40;65.90;;;;;;5040783;28;20079;-46
2022/03/06 07:43:41;;;;;;;4.03;1.70;;;2.50;65.10;;;;;;5042397;28;20112;-46
2022/03/06 07:46:08;;;;;;;3.63;1.98;;;2.50;64.70;;;;;;5049611;28;20036;-45
2022/03/06 07:48:36;;;;;;;3.17;1.60;;;2.70;64.30;;;;;;5032214;28;20023;-43
2022/03/06 07:51:03;;;;;;;3.10;1.65;;;2.90;64.00;;;;;;5047051;28;20108;-47
2022/03/06 07:53:29;;;;;;;4.53;1.40;;;3.10;64.20;;;;;;5032128;28;20531;-45
2022/03/06 07:55:56;;;;;;;3.78;1.67;;;3.40;62.60;;;;;;5032131;28;20025;-45
2022/03/06 07:58:23;;;;;;;4.88;1.95;;;3.70;61.50;;;;;;5046709;28;20159;-43
2022/03/06 08:00:50;;;;;;;3.42;1.88;;;3.90;60.40;;;;;;5048367;28;21533;-47
2022/03/06 08:03:19;;;;;;;3.72;1.90;;;4.20;58.50;;;;;;5030768;28;20669;-48
2022/03/06 08:05:47;;;;;;;2.53;1.33;;;4.40;58.20;;;;;;5048064;28;20029;-46
2022/03/06 08:08:15;;;;;;;3.67;1.60;;;4.70;57.20;;;;;;5028898;28;20021;-45
2022/03/06 08:10:45;;;;;;;2.42;1.17;;;4.90;56.20;;;;;;5047894;28;20112;-43
2022/03/06 08:13:11;;;;;;;3.75;1.35;;;5.00;55.60;;;;;;5048549;28;20067;-43
2022/03/06 08:15:37;;;;;;;3.67;1.40;;;5.30;56.00;;;;;;5048804;28;20036;-43
2022/03/06 08:18:08;;;;;;;3.20;1.10;;;5.30;55.20;;;;;;5047533;28;20079;-46
2022/03/06 08:20:36;;;;;;;4.45;1.20;;;5.50;56.00;;;;;;5045695;28;20049;-43
2022/03/06 08:23:02;;;;;;;2.22;1.10;;;5.50;53.60;;;;;;5049063;28;20095;-43
2022/03/06 08:25:28;;;;;;;3.10;1.20;;;5.70;52.50;;;;;;5048451;28;20021;-43
2022/03/06 08:27:53;;;;;;;3.33;1.45;;;5.80;52.30;;;;;;5031576;28;20103;-43
2022/03/06 08:30:21;;;;;;;2.80;1.20;;;6.10;51.60;;;;;;5048170;28;20052;-44
2022/03/06 08:32:47;;;;;;;2.55;1.40;;;6.00;51.50;;;;;;5048721;28;20342;-44
2022/03/06 08:35:12;;;;;;;5.78;1.80;;;6.10;50.60;;;;;;5048387;28;20031;-43
2022/03/06 08:37:38;;;;;;;4.18;1.42;;;6.20;52.80;;;;;;5035230;28;20105;-42
2022/03/06 08:40:04;;;;;;;3.70;1.60;;;6.40;50.80;;;;;;5018655;28;20033;-43
2022/03/06 08:42:32;;;;;;;3.05;1.17;;;6.60;51.40;;;;;;5035386;28;20021;-44
2022/03/06 08:45:00;;;;;;;2.63;1.20;;;6.90;49.70;;;;;;5035336;28;20119;-43
2022/03/06 08:47:28;;;;;;;3.83;1.70;;;6.90;50.60;;;;;;5034515;28;20021;-44
2022/03/06 08:49:55;;;;;;;4.40;1.65;;;7.10;51.00;;;;;;5035142;28;20079;-43
2022/03/06 08:52:21;;;;;;;3.42;2.03;;;7.20;48.70;;;;;;5052733;28;20025;-44
2022/03/06 08:54:47;;;;;;;4.18;1.67;;;7.10;47.50;;;;;;5035471;28;20029;-44
2022/03/06 08:57:12;;;;;;;2.47;1.23;;;7.00;48.40;;;;;;5053195;28;20028;-44
2022/03/06 08:59:42;;;;;;;3.72;1.30;;;6.70;48.70;;;;;;5053053;28;20047;-46
2022/03/06 09:02:08;;;;;;;3.92;1.77;;;6.80;48.80;;;;;;5034691;28;20041;-43
2022/03/06 09:04:36;;;;;;;3.28;1.20;;;6.80;50.60;;;;;;5052837;28;20036;-43
2022/03/06 09:07:09;;;;;;;3.05;1.20;;;6.40;49.30;;;;;;5052429;28;20021;-43
2022/03/06 09:09:36;;;;;;;4.38;1.83;;;6.30;48.70;;;;;;5051737;28;20469;-43
2022/03/06 09:12:03;;;;;;;4.80;1.63;;;6.00;49.10;;;;;;5051928;28;20025;-43
2022/03/06 09:14:31;;;;;;;2.97;1.42;;;5.80;51.80;;;;;;5052434;28;20534;-44
2022/03/06 09:16:59;;;;;;;3.05;1.48;;;5.80;49.30;;;;;;5049500;28;20107;-43
2022/03/06 09:19:28;;;;;;;3.50;1.70;;;5.90;49.20;;;;;;5052133;28;20049;-46
2022/03/06 09:21:55;;;;;;;2.63;1.50;;;5.90;50.50;;;;;;5052317;28;20050;-44
2022/03/06 09:24:20;;;;;;;4.25;1.50;;;6.20;50.50;;;;;;5034887;28;20036;-44
2022/03/06 09:26:47;;;;;;;6.72;1.63;;;6.20;50.20;;;;;;5052387;28;20036;-45
2022/03/06 09:29:15;;;;;;;1.70;1.10;;;6.30;48.70;;;;;;5035319;28;20055;-46
2022/03/06 09:31:42;;;;;;;4.53;1.42;;;6.40;48.90;;;;;;5034232;28;20482;-44
2022/03/06 09:34:09;;;;;;;3.95;1.42;;;6.50;49.20;;;;;;5051848;28;20025;-44
2022/03/06 09:36:37;;;;;;;4.88;1.52;;;6.50;49.70;;;;;;5041090;28;20029;-46
2022/03/06 09:39:04;;;;;;;3.55;2.15;;;6.40;49.80;;;;;;5049764;28;20025;-43
2022/03/06 09:41:37;;;;;;;4.80;2.75;;;6.20;49.70;;;;;;5043041;28;20026;-43
2022/03/06 09:44:07;;;;;;;3.92;1.40;;;6.20;50.10;;;;;;5040784;28;20033;-45
2022/03/06 09:46:40;;;;;;;3.92;1.75;;;6.30;50.10;;;;;;5031640;28;20029;-45
2022/03/06 09:49:11;;;;;;;3.42;1.30;;;6.10;49.40;;;;;;5030203;28;20403;-43
2022/03/06 09:51:43;;;;;;;5.00;2.08;;;6.00;49.80;;;;;;5050828;28;20021;-44
2022/03/06 09:54:11;;;;;;;4.35;1.23;;;6.00;51.30;;;;;;5051397;28;20043;-44
2022/03/06 09:56:40;;;;;;;3.80;1.75;;;6.30;50.70;;;;;;5051668;28;20055;-44
2022/03/06 09:59:09;;;;;;;4.82;1.85;;;6.20;50.60;;;;;;5033566;28;20045;-44
2022/03/06 10:01:36;;;;;;;5.75;2.00;;;6.20;50.30;;;;;;5033624;28;20061;-45
2022/03/06 10:04:39;;;;;;;7.30;1.75;;;6.10;50.60;;;;;;5051454;28;20033;-44
2022/03/06 10:07:17;;;;;;;4.70;1.55;;;6.10;50.70;;;;;;5039374;28;20032;-44
2022/03/06 10:09:49;;;;;;;4.03;1.52;;;6.40;50.10;;;;;;5044187;28;20171;-44
2022/03/06 10:12:31;;;;;;;3.83;1.60;;;6.40;50.30;;;;;;5034061;28;20024;-47
2022/03/06 10:15:06;;;;;;;4.32;1.60;;;6.40;51.30;;;;;;5005140;28;20037;-47
2022/03/06 10:17:35;;;;;;;4.00;1.55;;;6.20;50.10;;;;;;5013609;28;20089;-44
2022/03/06 10:20:03;;;;;;;3.63;1.50;;;6.20;51.60;;;;;;5029524;28;20061;-46
2022/03/06 10:22:45;;;;;;;3.42;1.63;;;5.90;51.60;;;;;;5031362;28;20033;-46
2022/03/06 10:25:20;;;;;;;5.30;1.98;;;5.80;53.00;;;;;;5027640;28;20375;-46
2022/03/06 10:27:54;;;;;;;4.00;1.77;;;5.90;51.80;;;;;;5028133;28;20418;-45
2022/03/06 10:30:46;;;;;;;4.32;1.75;;;5.80;52.80;;;;;;5029875;28;20437;-47
2022/03/06 10:33:26;;;;;;;6.43;2.17;;;5.90;52.20;;;;;;5010897;28;20029;-42
2022/03/06 10:35:55;;;;;;;6.03;1.58;;;6.30;52.50;;;;;;5013135;28;20441;-45
2022/03/06 10:38:31;;;;;;;4.65;2.42;;;6.40;51.10;;;;;;5027566;28;20320;-44
2022/03/06 10:41:02;;;;;;;5.13;2.33;;;6.50;52.80;;;;;;5025384;28;20029;-44
2022/03/06 10:43:44;;;;;;;5.07;2.08;;;6.50;51.40;;;;;;5019260;28;20041;-46
2022/03/06 10:46:18;;;;;;;3.47;1.70;;;6.60;52.30;;;;;;5027447;28;20030;-44
2022/03/06 10:49:20;;;;;;;6.25;2.03;;;6.50;50.50;;;;;;5028790;28;20021;-46
2022/03/06 10:52:12;;;;;;;4.40;1.65;;;6.30;51.60;;;;;;5019717;28;20109;-43
2022/03/06 10:55:08;;;;;;;4.10;1.85;;;6.30;51.40;;;;;;5010061;28;20026;-44
2022/03/06 10:57:35;;;;;;;5.13;1.73;;;6.20;51.10;;;;;;5029273;28;20022;-46
2022/03/06 11:00:04;;;;;;;4.00;1.75;;;6.10;52.10;;;;;;5029308;28;20021;-44
2022/03/06 11:02:33;;;;;;;3.35;1.98;;;6.20;52.90;;;;;;5031242;28;20447;-44
2022/03/06 11:05:00;;;;;;;5.15;2.00;;;5.90;53.00;;;;;;5023749;28;20040;-45
2022/03/06 11:07:30;;;;;;;3.65;1.38;;;6.00;53.00;;;;;;5007225;28;20056;-43
2022/03/06 11:09:57;;;;;;;;;;;6.10;53.00;;;;;;5030523;28;20442;-46
2022/03/06 11:12:28;;;;;;;4.57;1.92;;;6.10;53.60;;;;;;5030500;28;19909;-44
2022/03/06 11:14:59;;;;;;;4.65;1.95;;;6.20;53.70;;;;;;5029430;28;20033;-45
2022/03/06 11:17:27;;;;;;;4.22;2.05;;;6.10;53.40;;;;;;5023998;28;20021;-44
2022/03/06 11:19:53;;;;;;;4.95;1.85;;;6.20;55.00;;;;;;5003576;28;20184;-44
2022/03/06 11:22:29;;;;;;;4.95;1.90;;;6.40;54.20;;;;;;5028834;28;20033;-43
2022/03/06 11:25:09;;;;;;;3.95;2.03;;;6.40;53.90;;;;;;5002037;28;20037;-47
2022/03/06 11:28:06;;;;;;;5.53;2.10;;;6.50;54.10;;;;;;5016517;28;20140;-43
2022/03/06 11:30:34;;;;;;;3.78;1.75;;;6.50;53.20;;;;;;4990139;28;20644;-43
2022/03/06 11:33:06;;;;;;;4.00;1.83;;;6.60;52.50;;;;;;5028828;28;20061;-44
2022/03/06 11:35:39;;;;;;;7.13;2.22;;;6.40;54.10;;;;;;5022390;28;20028;-43
2022/03/06 11:38:13;;;;;;;3.35;1.60;;;6.40;54.00;;;;;;5023499;28;20580;-43
2022/03/06 11:41:03;;;;;;;5.00;2.15;;;6.60;53.60;;;;;;5029016;28;20029;-45
2022/03/06 11:43:41;;;;;;;5.07;2.10;;;6.40;53.70;;;;;;5028506;28;20033;-45
2022/03/06 11:46:29;;;;;;;4.18;2.05;;;6.40;54.20;;;;;;5029514;28;20030;-45
2022/03/06 11:49:13;;;;;;;4.38;2.70;;;6.40;53.80;;;;;;5024062;28;20018;-44
2022/03/06 11:51:44;;;;;;;4.22;1.98;;;6.00;54.50;;;;;;5027484;28;20091;-45
2022/03/06 11:54:14;;;;;;;8.32;2.25;;;5.90;55.20;;;;;;5012139;28;20029;-44
2022/03/06 11:56:46;;;;;;;8.05;2.28;;;5.90;55.50;;;;;;5027290;28;20029;-43
2022/03/06 11:59:24;;;;;;;4.80;2.38;;;6.20;55.50;;;;;;5029220;28;20029;-43
2022/03/06 12:01:56;;;;;;;3.97;1.77;;;6.40;56.30;;;;;;5029087;28;20589;-43
2022/03/06 12:04:44;;;;;;;4.50;1.83;;;6.50;54.80;;;;;;5028814;28;20029;-44
2022/03/06 12:07:17;;;;;;;6.85;2.08;;;6.60;54.40;;;;;;5027200;28;20048;-43
2022/03/06 12:09:45;;;;;;;5.13;1.98;;;6.60;54.40;;;;;;5027291;28;20032;-43
2022/03/06 12:12:15;;;;;;;3.85;2.05;;;6.50;55.40;;;;;;5023350;28;20357;-43
2022/03/06 12:14:44;;;;;;;6.65;2.33;;;6.60;55.50;;;;;;5011896;28;20107;-44
2022/03/06 12:17:16;;;;;;;4.85;3.10;;;6.50;56.10;;;;;;5028456;28;20045;-44
2022/03/06 12:19:51;;;;;;;4.57;2.22;;;6.50;56.10;;;;;;5029122;28;20051;-44
2022/03/06 12:22:29;;;;;;;4.03;1.95;;;6.70;56.20;;;;;;5029005;28;20359;-45
2022/03/06 12:25:06;;;;;;;5.50;2.20;;;6.70;56.70;;;;;;5009888;28;20093;-44
2022/03/06 12:27:33;;;;;;;5.97;2.60;;;6.70;56.60;;;;;;5010483;28;20042;-46
2022/03/06 12:30:02;;;;;;;5.78;2.60;;;6.80;57.90;;;;;;4980625;28;20058;-47
2022/03/06 12:32:47;;;;;;;9.63;3.50;;;6.60;57.40;;;;;;5011471;28;20104;-45
2022/03/06 12:35:31;;;;;;;7.90;2.63;;;6.40;57.00;;;;;;5029601;28;20462;-44
2022/03/06 12:38:04;;;;;;;8.32;2.60;;;6.40;57.70;;;;;;5023665;28;20036;-47
2022/03/06 12:40:32;;;;;;;4.88;3.00;;;6.40;59.40;;;;;;5017921;28;20026;-45
2022/03/06 12:43:07;;;;;;;8.52;2.72;;;6.40;57.70;;;;;;5002555;28;20070;-43
2022/03/06 12:45:36;;;;;;;6.30;2.72;;;6.40;59.30;;;;;;5003302;28;20051;-44
2022/03/06 12:48:04;;;;;;;7.35;2.50;;;6.30;59.60;;;;;;5003784;28;20458;-45
2022/03/06 12:50:29;;;;;;;6.60;3.53;;;6.40;59.10;;;;;;5028439;28;20042;-46
2022/03/06 12:53:07;;;;;;;5.18;2.80;;;6.40;59.00;;;;;;5011644;28;20026;-45
2022/03/06 12:55:36;;;;;;;6.28;2.60;;;6.40;60.20;;;;;;5013395;28;20077;-44
2022/03/06 12:58:08;;;;;;;6.55;3.53;;;6.30;60.30;;;;;;5018762;28;20081;-45
2022/03/06 13:00:35;;;;;;;7.63;3.25;;;6.20;60.30;;;;;;5026862;28;20029;-44
2022/03/06 13:03:07;;;;;;;5.18;2.88;;;6.00;61.10;;;;;;5029043;28;20106;-43
2022/03/06 13:05:37;;;;;;;3.63;2.47;;;6.10;62.10;;;;;;5009572;28;20044;-45
2022/03/06 13:08:07;;;;;;;6.70;3.22;;;6.20;62.10;;;;;;5028559;28;20057;-42
2022/03/06 13:10:34;;;;;;;;;;;6.40;62.30;;;;;;4980422;28;20096;-43